Latest Weather Observations for Sellicks Hill

IDS60801

Issued at 6:31 pm CST Friday 6 May 2016 (issued every 30 minutes, with the page automatically refreshed every 10 minutes)

About weather observations | Map of weather stations | Latest weather observations for SA | Other Formats
Station Details ID: 023886 Name: MOUNT TERRIBLE RADAR Lat: -35.33 Lon: 138.50 Height: 385.7 m
Data from the previous 72 hours. | See also: Recent months for locations in South Australia
Date/Time
CST
Temp
°C
App
Temp
°C
Dew
Point
Rel
Hum
%
Delta-T
°C
Wind Press
QNH
hPa
Press
MSL
hPa
Rain
since 9 am
mm
Dir
 
Spd
km/h
Gust
km/h
Spd
kts
Gust
kts
06/06:30pm - - - - - SE 19 22 10 12 - - -
06/06:00pm - - - - - SE 17 20 9 11 - - -
06/05:30pm - - - - - SSE 20 24 11 13 - - -
06/05:00pm - - - - - SE 19 22 10 12 - - -
06/04:30pm - - - - - SSE 17 20 9 11 - - -
06/04:00pm - - - - - SSE 13 17 7 9 - - -
06/03:30pm - - - - - WNW 2 7 1 4 - - -
06/03:00pm - - - - - WNW 2 7 1 4 - - -
06/02:30pm - - - - - W 4 6 2 3 - - -
06/02:00pm - - - - - NNW 4 9 2 5 - - -
06/01:30pm - - - - - N 4 7 2 4 - - -
06/01:00pm - - - - - NNW 6 15 3 8 - - -
06/12:30pm - - - - - N 4 9 2 5 - - -
06/12:00pm - - - - - W 7 13 4 7 - - -
06/11:30am - - - - - NW 6 15 3 8 - - -
06/11:00am - - - - - NNW 6 11 3 6 - - -
06/10:30am - - - - - NNW 6 9 3 5 - - -
06/10:00am - - - - - N 2 6 1 3 - - -
06/09:30am - - - - - NNE 4 7 2 4 - - -
06/09:00am - - - - - SE 2 6 1 3 - - -
06/08:30am - - - - - CALM 0 0 0 0 - - -
06/08:00am - - - - - CALM 0 0 0 0 - - -
06/07:30am - - - - - WNW 2 4 1 2 - - -
06/07:00am - - - - - NNW 4 7 2 4 - - -
06/06:30am - - - - - NNE 2 4 1 2 - - -
06/06:00am - - - - - N 4 6 2 3 - - -
06/05:30am - - - - - NNW 4 6 2 3 - - -
06/05:00am - - - - - N 4 6 2 3 - - -
06/04:30am - - - - - NNW 6 7 3 4 - - -
06/04:00am - - - - - NNW 6 7 3 4 - - -
06/03:30am - - - - - NNW 6 9 3 5 - - -
06/03:00am - - - - - NNW 6 9 3 5 - - -
06/02:30am - - - - - NNW 7 11 4 6 - - -
06/02:00am - - - - - NNW 7 9 4 5 - - -
06/01:30am - - - - - NNW 7 11 4 6 - - -
06/01:00am - - - - - NNW 7 9 4 5 - - -
06/12:30am - - - - - NNW 9 13 5 7 - - -
06/12:00am - - - - - NNW 7 15 4 8 - - -
 
Date/Time
CST
Temp
°C
App
Temp
°C
Dew
Point
Rel
Hum
%
Delta-T
°C
Wind Press
QNH
hPa
Press
MSL
hPa
Rain
since 9 am
mm
Dir
 
Spd
km/h
Gust
km/h
Spd
kts
Gust
kts
05/11:30pm - - - - - N 7 17 4 9 - - -
05/11:00pm - - - - - N 7 19 4 10 - - -
05/10:30pm - - - - - NNW 9 19 5 10 - - -
05/10:00pm - - - - - NNW 11 19 6 10 - - -
05/09:30pm - - - - - NNW 13 26 7 14 - - -
05/09:00pm - - - - - NNW 11 24 6 13 - - -
05/08:30pm - - - - - NNW 13 26 7 14 - - -
05/08:00pm - - - - - NNW 11 20 6 11 - - -
05/07:30pm - - - - - N 11 20 6 11 - - -
05/07:00pm - - - - - N 9 19 5 10 - - -
05/06:30pm - - - - - N 9 20 5 11 - - -
05/06:00pm - - - - - N 9 19 5 10 - - -
05/05:30pm - - - - - NNW 13 24 7 13 - - -
05/05:00pm - - - - - NNW 15 26 8 14 - - -
05/04:30pm - - - - - NNW 20 30 11 16 - - -
05/04:00pm - - - - - NNW 19 35 10 19 - - -
05/03:30pm - - - - - NNW 19 30 10 16 - - -
05/03:00pm - - - - - NNW 24 39 13 21 - - -
05/02:30pm - - - - - NNW 19 32 10 17 - - -
05/02:00pm - - - - - NNW 20 30 11 16 - - -
05/01:30pm - - - - - NNW 22 43 12 23 - - -
05/01:00pm - - - - - NNW 22 39 12 21 - - -
05/12:30pm - - - - - NNW 22 39 12 21 - - -
05/12:00pm - - - - - NNW 20 33 11 18 - - -
05/11:30am - - - - - NNW 20 35 11 19 - - -
05/11:00am - - - - - NNW 22 37 12 20 - - -
05/10:30am - - - - - NNW 20 39 11 21 - - -
05/10:00am - - - - - NNW 19 30 10 16 - - -
05/09:30am - - - - - NNW 15 24 8 13 - - -
05/09:00am - - - - - NNW 17 30 9 16 - - -
05/08:30am - - - - - N 15 24 8 13 - - -
05/08:00am - - - - - NNW 15 26 8 14 - - -
05/07:30am - - - - - NNW 17 24 9 13 - - -
05/07:00am - - - - - NNW 15 28 8 15 - - -
05/06:30am - - - - - NNW 17 28 9 15 - - -
05/06:00am - - - - - NNW 15 24 8 13 - - -
05/05:30am - - - - - NNW 15 30 8 16 - - -
05/05:00am - - - - - NW 24 35 13 19 - - -
05/04:30am - - - - - NW 24 41 13 22 - - -
05/04:00am - - - - - NW 22 35 12 19 - - -
05/03:30am - - - - - NNW 22 37 12 20 - - -
05/03:00am - - - - - NNW 24 41 13 22 - - -
05/02:30am - - - - - NNW 24 39 13 21 - - -
05/02:00am - - - - - NNW 24 39 13 21 - - -
05/01:30am - - - - - NNW 22 35 12 19 - - -
05/01:00am - - - - - NNW 17 28 9 15 - - -
05/12:30am - - - - - NW 15 30 8 16 - - -
05/12:00am - - - - - NNW 19 32 10 17 - - -
 
Date/Time
CST
Temp
°C
App
Temp
°C
Dew
Point
Rel
Hum
%
Delta-T
°C
Wind Press
QNH
hPa
Press
MSL
hPa
Rain
since 9 am
mm
Dir
 
Spd
km/h
Gust
km/h
Spd
kts
Gust
kts
04/11:30pm - - - - - NNW 20 30 11 16 - - -
04/11:00pm - - - - - NNW 20 32 11 17 - - -
04/10:30pm - - - - - NNW 19 32 10 17 - - -
04/10:00pm - - - - - NNW 17 30 9 16 - - -
04/09:30pm - - - - - NNW 17 30 9 16 - - -
04/09:00pm - - - - - NNW 17 26 9 14 - - -
04/08:30pm - - - - - NNW 17 28 9 15 - - -
04/08:00pm - - - - - NNW 20 33 11 18 - - -
04/07:30pm - - - - - NNW 20 35 11 19 - - -
04/07:00pm - - - - - NNW 20 30 11 16 - - -
04/06:30pm - - - - - NNW 19 32 10 17 - - -
04/06:00pm - - - - - NNW 20 35 11 19 - - -
04/05:30pm - - - - - NNW 20 33 11 18 - - -
04/05:00pm - - - - - NNW 19 30 10 16 - - -
04/04:30pm - - - - - NW 17 28 9 15 - - -
04/04:00pm - - - - - NNW 15 24 8 13 - - -
04/03:30pm - - - - - NNW 17 26 9 14 - - -
04/03:00pm - - - - - NW 19 28 10 15 - - -
04/02:30pm - - - - - NW 15 32 8 17 - - -
04/02:00pm - - - - - NW 11 20 6 11 - - -
04/01:30pm - - - - - NNW 19 28 10 15 - - -
04/01:00pm - - - - - NW 13 24 7 13 - - -
04/12:30pm - - - - - NW 15 30 8 16 - - -
04/12:00pm - - - - - NNW 19 33 10 18 - - -
04/11:30am - - - - - NNW 19 33 10 18 - - -
04/11:00am - - - - - NNW 17 28 9 15 - - -
04/10:30am - - - - - NNW 11 20 6 11 - - -
04/10:00am - - - - - NW 11 20 6 11 - - -
04/09:30am - - - - - NW 7 17 4 9 - - -
04/09:00am - - - - - NW 7 17 4 9 - - -
04/08:30am - - - - - WNW 7 17 4 9 - - -
04/08:00am - - - - - W 6 19 3 10 - - -
04/07:30am - - - - - WNW 6 13 3 7 - - -
04/07:00am - - - - - WNW 6 13 3 7 - - -
04/06:30am - - - - - W 6 11 3 6 - - -
04/06:00am - - - - - W 6 17 3 9 - - -
04/05:30am - - - - - W 7 11 4 6 - - -
04/05:00am - - - - - W 6 11 3 6 - - -
04/04:30am - - - - - W 7 15 4 8 - - -
04/04:00am - - - - - WNW 7 13 4 7 - - -
04/03:30am - - - - - WNW 9 17 5 9 - - -
04/03:00am - - - - - WNW 7 13 4 7 - - -
04/02:30am - - - - - WNW 7 15 4 8 - - -
04/02:00am - - - - - WNW 7 15 4 8 - - -
04/01:30am - - - - - W 6 13 3 7 - - -
04/01:00am - - - - - W 6 13 3 7 - - -
04/12:30am - - - - - W 6 15 3 8 - - -
04/12:00am - - - - - SW 6 13 3 7 - - -
 
Date/Time
CST
Temp
°C
App
Temp
°C
Dew
Point
Rel
Hum
%
Delta-T
°C
Wind Press
QNH
hPa
Press
MSL
hPa
Rain
since 9 am
mm
Dir
 
Spd
km/h
Gust
km/h
Spd
kts
Gust
kts
03/11:30pm - - - - - W 9 19 5 10 - - -
03/11:00pm - - - - - W 9 19 5 10 - - -
03/10:30pm - - - - - W 7 13 4 7 - - -
03/10:00pm - - - - - W 9 24 5 13 - - -
03/09:30pm - - - - - W 11 26 6 14 - - -
03/09:00pm - - - - - W 11 20 6 11 - - -
03/08:30pm - - - - - W 9 22 5 12 - - -
03/08:00pm - - - - - WSW 9 22 5 12 - - -
03/07:30pm - - - - - W 11 22 6 12 - - -
03/07:00pm - - - - - W 13 37 7 20 - - -

Other Formats:

Comma delimited format used in spreadsheet applications
http://www.bom.gov.au/fwo/IDS60801/IDS60801.95679.axf

JavaScript Object Notation format (JSON) in row-major order
http://www.bom.gov.au/fwo/IDS60801/IDS60801.95679.json